Marshfield, Vermont
Current Conditions -  °F | °C
As of 7:51 AM on Sunday 21 Dec 2014 (Local Time) from KMPV Reporting Station
Haze Haze  
Wind Chill: 15°   Ceiling: 3500
Heat Index: 15°   Visibility: 5mi
Dew Point: 13°   Wind: 0mph
Humidity: 91%   Direction: NA
Pressure: 30.32"   Gusts: NA
Location:  44.35°N, 72.35°W
Report Text: KMPV 211251Z AUTO 00000KT 5SM BR OVC035 M09/M11 A3032 RMK AO2 SLP293 T10941106 $
Loading
Personal Weather Stations






























Interactive Weather Map New forecast layout! Learn more

10-Day Weather Forecast

Advertisements
Track Severe Weather on mobile